createdAt,value
2023-05-24T00:00:33.167Z,99.90
2023-05-24T00:03:02.811Z,99.90
2023-05-24T00:05:31.423Z,99.90
2023-05-24T00:08:00.228Z,99.90
2023-05-24T00:10:28.498Z,99.90
2023-05-24T00:12:56.605Z,99.90
2023-05-24T00:15:24.702Z,99.90
2023-05-24T00:17:54.034Z,99.90
2023-05-24T00:20:22.072Z,99.90
2023-05-24T00:22:50.053Z,99.90
2023-05-24T00:25:18.258Z,99.90
2023-05-24T00:27:46.401Z,99.90
2023-05-24T00:30:14.634Z,99.90
2023-05-24T00:32:42.671Z,99.90
2023-05-24T00:35:12.385Z,99.90
2023-05-24T00:37:44.952Z,99.90
2023-05-24T00:40:15.804Z,99.90
2023-05-24T00:42:44.415Z,99.90
2023-05-24T00:45:12.860Z,99.90
2023-05-24T00:47:42.010Z,99.90
2023-05-24T00:50:14.465Z,99.90
2023-05-24T00:52:43.224Z,99.90
2023-05-24T00:55:13.256Z,99.90
2023-05-24T00:57:41.354Z,99.90
2023-05-24T01:00:12.825Z,99.90
2023-05-24T01:02:41.044Z,99.90
2023-05-24T01:05:13.689Z,99.90
2023-05-24T01:07:59.832Z,99.90
2023-05-24T01:10:40.674Z,99.90
2023-05-24T01:13:25.521Z,99.90
2023-05-24T01:16:06.436Z,99.90
2023-05-24T01:18:41.695Z,99.90
2023-05-24T01:21:38.587Z,99.90
2023-05-24T01:24:25.709Z,99.90
2023-05-24T01:27:09.385Z,99.90
2023-05-24T01:29:37.806Z,99.90
2023-05-24T01:32:07.723Z,99.90
2023-05-24T01:34:36.126Z,99.90
2023-05-24T01:37:04.095Z,99.90
2023-05-24T01:39:33.343Z,99.90
2023-05-24T01:42:12.526Z,99.90
2023-05-24T01:44:45.731Z,99.90
2023-05-24T01:47:29.834Z,99.90
2023-05-24T01:50:12.453Z,99.90
2023-05-24T01:52:44.890Z,99.90
2023-05-24T01:55:18.120Z,99.90
2023-05-24T01:57:51.657Z,99.90
2023-05-24T02:00:21.674Z,99.90
2023-05-24T02:02:50.261Z,99.90
2023-05-24T02:05:19.007Z,99.90
2023-05-24T02:07:47.009Z,99.90
2023-05-24T02:10:14.944Z,99.90
2023-05-24T02:12:42.961Z,99.90
2023-05-24T02:15:14.656Z,99.90
2023-05-24T02:17:43.751Z,99.90
2023-05-24T02:20:14.034Z,99.90
2023-05-24T02:22:42.039Z,99.90
2023-05-24T02:25:10.563Z,99.90
2023-05-24T02:27:39.048Z,99.90
2023-05-24T02:30:09.008Z,99.90
2023-05-24T02:32:38.285Z,99.90
2023-05-24T02:35:07.667Z,99.90
2023-05-24T02:37:36.310Z,99.90
2023-05-24T02:40:04.872Z,99.90
2023-05-24T02:42:32.803Z,99.90
2023-05-24T02:45:01.129Z,99.90
2023-05-24T02:47:29.446Z,99.90
2023-05-24T02:49:58.717Z,99.90
2023-05-24T02:52:26.755Z,99.90
2023-05-24T02:54:54.801Z,99.90
2023-05-24T02:57:23.241Z,99.90
2023-05-24T02:59:52.933Z,99.90
2023-05-24T03:02:22.080Z,99.90
2023-05-24T03:04:50.088Z,99.90
2023-05-24T03:07:19.594Z,99.90
2023-05-24T03:09:47.876Z,99.90
2023-05-24T03:12:15.907Z,99.90
2023-05-24T03:14:44.367Z,99.90
2023-05-24T03:17:12.513Z,99.90
2023-05-24T03:19:40.614Z,99.90
2023-05-24T03:22:08.631Z,99.90
2023-05-24T03:24:38.774Z,99.90
2023-05-24T03:27:07.442Z,99.90
2023-05-24T03:29:35.426Z,99.90
2023-05-24T03:32:03.805Z,99.90
2023-05-24T03:34:32.179Z,99.90
2023-05-24T03:37:00.147Z,99.90
2023-05-24T03:39:28.287Z,99.90
2023-05-24T03:42:04.216Z,99.90
2023-05-24T03:44:32.888Z,99.90
2023-05-24T03:47:01.416Z,99.90
2023-05-24T03:49:29.349Z,99.90
2023-05-24T03:52:00.035Z,99.90
2023-05-24T03:54:28.826Z,99.90
2023-05-24T03:56:56.774Z,99.90
2023-05-24T03:59:27.048Z,99.90
2023-05-24T04:01:56.322Z,99.90
2023-05-24T04:04:24.510Z,99.90
2023-05-24T04:06:53.911Z,99.90
2023-05-24T04:09:23.698Z,99.90
2023-05-24T04:11:52.097Z,99.90
2023-05-24T04:14:20.057Z,99.90
2023-05-24T04:16:49.322Z,99.90
2023-05-24T04:19:17.352Z,99.90
2023-05-24T04:21:46.322Z,99.90
2023-05-24T04:24:14.312Z,99.90
2023-05-24T04:26:44.770Z,99.90
2023-05-24T04:29:13.037Z,99.90
2023-05-24T04:31:43.283Z,99.90
2023-05-24T04:34:14.313Z,99.90
2023-05-24T04:36:45.389Z,99.90
2023-05-24T04:39:13.658Z,99.90
2023-05-24T04:41:41.593Z,99.90
2023-05-24T04:44:09.829Z,99.90
2023-05-24T04:46:37.940Z,99.90
2023-05-24T04:49:08.399Z,99.90
2023-05-24T04:51:38.753Z,99.90
2023-05-24T04:54:09.169Z,99.90
2023-05-24T04:56:38.501Z,99.90
2023-05-24T04:59:06.996Z,99.90
2023-05-24T05:01:35.509Z,99.90
2023-05-24T05:04:05.095Z,99.90
2023-05-24T05:06:34.937Z,99.90
2023-05-24T05:09:04.481Z,99.90
2023-05-24T05:11:32.568Z,99.90
2023-05-24T05:14:00.478Z,99.90
2023-05-24T05:16:28.568Z,99.90
2023-05-24T05:18:56.630Z,99.90
2023-05-24T05:21:24.588Z,99.90
2023-05-24T05:23:52.580Z,99.90
2023-05-24T05:26:22.331Z,99.90
2023-05-24T05:28:50.299Z,99.90
2023-05-24T05:31:18.530Z,99.90
2023-05-24T05:33:46.813Z,99.90
2023-05-24T05:36:14.835Z,99.90
2023-05-24T05:38:42.965Z,99.90
2023-05-24T05:41:10.970Z,99.90
2023-05-24T05:43:40.488Z,99.90
2023-05-24T05:46:08.530Z,99.90
2023-05-24T05:48:36.853Z,99.90
2023-05-24T05:51:05.084Z,99.90
2023-05-24T05:53:35.184Z,99.90
2023-05-24T05:56:03.125Z,99.90
2023-05-24T05:58:31.120Z,99.90
2023-05-24T06:01:00.502Z,99.90
2023-05-24T06:03:28.612Z,99.90
2023-05-24T06:05:56.770Z,99.90
2023-05-24T06:08:24.659Z,99.90
2023-05-24T06:10:53.078Z,99.90
2023-05-24T06:13:21.133Z,99.90
2023-05-24T06:15:49.967Z,99.90
2023-05-24T06:18:19.334Z,99.90
2023-05-24T06:20:47.578Z,99.90
2023-05-24T06:23:15.625Z,99.90
2023-05-24T06:25:44.354Z,99.90
2023-05-24T06:28:12.267Z,99.90
2023-05-24T06:30:40.359Z,99.90
2023-05-24T06:33:08.495Z,99.90
2023-05-24T06:35:37.825Z,99.90
2023-05-24T06:38:05.779Z,99.90
2023-05-24T06:40:34.164Z,99.90
2023-05-24T06:43:02.237Z,99.90
2023-05-24T06:45:30.606Z,99.90
2023-05-24T06:47:59.627Z,99.90
2023-05-24T06:50:28.786Z,99.90
2023-05-24T06:52:58.130Z,99.90
2023-05-24T06:55:26.532Z,99.90
2023-05-24T06:57:54.552Z,99.90
2023-05-24T07:00:23.018Z,99.10
2023-05-24T07:02:51.485Z,98.30
2023-05-24T07:05:19.814Z,97.10
2023-05-24T07:07:48.052Z,97.30
2023-05-24T07:10:17.430Z,98.30
2023-05-24T07:12:45.566Z,97.40
2023-05-24T07:15:13.842Z,99.70
2023-05-24T07:17:41.856Z,99.40
2023-05-24T07:20:13.664Z,98.00
2023-05-24T07:22:44.041Z,96.80
2023-05-24T07:25:11.992Z,97.20
2023-05-24T07:27:41.352Z,97.20
2023-05-24T07:30:23.513Z,98.10
2023-05-24T07:32:58.353Z,99.90
2023-05-24T07:35:26.420Z,99.90
2023-05-24T07:37:54.406Z,99.90
2023-05-24T07:40:23.182Z,99.90
2023-05-24T07:42:52.677Z,99.90
2023-05-24T07:45:20.757Z,99.90
2023-05-24T07:47:48.767Z,99.90
2023-05-24T07:50:17.087Z,99.90
2023-05-24T07:52:45.496Z,99.90
2023-05-24T07:55:14.526Z,99.90
2023-05-24T07:57:42.675Z,99.90
2023-05-24T08:00:15.087Z,99.90
2023-05-24T08:02:44.204Z,99.90
2023-05-24T08:05:13.968Z,99.90
2023-05-24T08:07:42.680Z,99.90
2023-05-24T08:10:13.619Z,99.90
2023-05-24T08:12:42.015Z,99.90
2023-05-24T08:15:12.055Z,99.90
2023-05-24T08:17:40.565Z,99.90
2023-05-24T08:20:13.479Z,99.90
2023-05-24T08:22:41.539Z,99.90
2023-05-24T08:25:10.838Z,99.90
2023-05-24T08:27:38.903Z,99.90
2023-05-24T08:30:13.484Z,99.90
2023-05-24T08:32:41.481Z,99.00
2023-05-24T08:35:19.131Z,99.90
2023-05-24T08:37:49.158Z,99.90
2023-05-24T08:40:18.347Z,99.90
2023-05-24T08:42:47.205Z,99.90
2023-05-24T08:45:18.289Z,99.90
2023-05-24T08:47:48.528Z,99.90
2023-05-24T08:50:16.898Z,99.90
2023-05-24T08:52:46.890Z,99.90
2023-05-24T08:55:16.773Z,99.90
2023-05-24T08:57:46.508Z,99.90
2023-05-24T09:00:18.048Z,99.90
2023-05-24T09:02:47.796Z,99.90
2023-05-24T09:05:17.618Z,99.90
2023-05-24T09:07:47.328Z,99.90
2023-05-24T09:10:15.972Z,99.90
2023-05-24T09:12:49.465Z,99.90
2023-05-24T09:15:20.301Z,99.90
2023-05-24T09:17:48.667Z,99.90
2023-05-24T09:20:16.852Z,99.90
2023-05-24T09:22:48.101Z,99.90
2023-05-24T09:25:16.090Z,99.90
2023-05-24T09:27:49.962Z,99.90
2023-05-24T09:30:19.887Z,99.90
2023-05-24T09:32:59.381Z,99.90
2023-05-24T09:35:28.314Z,99.90
2023-05-24T09:37:59.982Z,99.90
2023-05-24T09:40:30.041Z,99.90
2023-05-24T09:43:07.449Z,99.90
2023-05-24T09:45:42.873Z,99.90
2023-05-24T09:48:13.489Z,99.90
2023-05-24T09:50:42.030Z,99.90
2023-05-24T09:53:10.139Z,99.90
2023-05-24T09:55:38.932Z,99.90
2023-05-24T09:58:09.268Z,99.90
2023-05-24T10:00:42.288Z,99.90
2023-05-24T10:03:15.254Z,99.90
2023-05-24T10:05:46.452Z,99.90
2023-05-24T10:08:15.222Z,99.90
2023-05-24T10:10:44.138Z,99.90
2023-05-24T10:13:15.808Z,99.90
2023-05-24T10:15:46.025Z,99.90
2023-05-24T10:18:14.448Z,99.90
2023-05-24T10:20:43.058Z,99.90
2023-05-24T10:23:16.049Z,99.90
2023-05-24T10:25:56.928Z,99.90
2023-05-24T10:28:27.179Z,99.90
2023-05-24T10:31:07.324Z,99.90
2023-05-24T10:33:39.060Z,99.90
2023-05-24T10:36:10.807Z,99.90
2023-05-24T10:38:41.357Z,99.90
2023-05-24T10:41:09.758Z,99.90
2023-05-24T10:43:38.910Z,99.90
2023-05-24T10:46:11.650Z,99.90
2023-05-24T10:48:42.587Z,99.90
2023-05-24T10:51:35.420Z,99.90
2023-05-24T10:54:21.545Z,99.90
2023-05-24T10:56:52.214Z,99.90
2023-05-24T10:59:37.539Z,99.90
2023-05-24T11:02:13.731Z,99.90
2023-05-24T11:04:44.378Z,99.90
2023-05-24T11:07:15.225Z,99.90
2023-05-24T11:09:47.072Z,99.90
2023-05-24T11:12:17.381Z,99.90
2023-05-24T11:14:50.382Z,99.90
2023-05-24T11:17:21.603Z,99.90
2023-05-24T11:19:54.168Z,99.90
2023-05-24T11:22:25.118Z,99.90
2023-05-24T11:24:54.122Z,99.90
2023-05-24T11:27:22.984Z,99.90
2023-05-24T11:29:51.127Z,99.90
2023-05-24T11:32:23.935Z,99.90
2023-05-24T11:34:52.155Z,99.90
2023-05-24T11:37:26.320Z,99.90
2023-05-24T11:39:59.798Z,99.90
2023-05-24T11:42:29.827Z,99.90
2023-05-24T11:44:57.858Z,99.90
2023-05-24T11:47:27.875Z,99.90
2023-05-24T11:49:55.793Z,99.90
2023-05-24T11:52:23.722Z,99.90
2023-05-24T11:54:52.205Z,99.90
2023-05-24T11:57:27.824Z,99.90
2023-05-24T11:59:56.663Z,99.90
2023-05-24T12:02:25.070Z,99.90
2023-05-24T12:04:55.249Z,99.90
2023-05-24T12:07:25.133Z,99.90
2023-05-24T12:09:53.183Z,99.90
2023-05-24T12:12:30.593Z,99.90
2023-05-24T12:15:02.284Z,99.90
2023-05-24T12:17:30.564Z,99.90
2023-05-24T12:20:06.193Z,99.90
2023-05-24T12:22:34.667Z,99.90
2023-05-24T12:25:05.270Z,99.90
2023-05-24T12:27:34.721Z,99.90
2023-05-24T12:30:10.032Z,99.90
2023-05-24T12:32:38.094Z,99.90
2023-05-24T12:35:09.317Z,99.90
2023-05-24T12:37:37.323Z,99.90
2023-05-24T12:40:16.376Z,99.90
2023-05-24T12:42:46.248Z,99.90
2023-05-24T12:45:14.629Z,99.90
2023-05-24T12:47:42.977Z,99.90
2023-05-24T12:50:12.884Z,99.90
2023-05-24T12:52:40.803Z,99.90
2023-05-24T12:55:09.575Z,99.90
2023-05-24T12:57:38.419Z,99.90
2023-05-24T13:00:08.287Z,99.90
2023-05-24T13:02:38.135Z,99.90
2023-05-24T13:05:10.665Z,99.90
2023-05-24T13:07:40.249Z,99.90
2023-05-24T13:10:09.513Z,99.90
2023-05-24T13:12:37.499Z,99.90
2023-05-24T13:15:07.713Z,99.90
2023-05-24T13:17:36.229Z,99.90
2023-05-24T13:20:07.607Z,99.90
2023-05-24T13:22:37.260Z,99.90
2023-05-24T13:25:08.492Z,99.90
2023-05-24T13:27:36.537Z,99.90
2023-05-24T13:30:05.587Z,99.90
2023-05-24T13:32:33.574Z,99.90
2023-05-24T13:35:02.068Z,99.90
2023-05-24T13:37:30.034Z,99.90
2023-05-24T13:39:57.981Z,99.90
2023-05-24T13:42:27.723Z,99.90
2023-05-24T13:44:56.219Z,99.90
2023-05-24T13:47:38.941Z,99.90
2023-05-24T13:50:09.192Z,99.90
2023-05-24T13:52:37.708Z,99.90
2023-05-24T13:55:07.212Z,99.90
2023-05-24T13:57:50.574Z,99.90
2023-05-24T14:00:21.336Z,99.90
2023-05-24T14:02:49.522Z,99.90
2023-05-24T14:05:27.354Z,99.90
2023-05-24T14:07:57.574Z,99.90
2023-05-24T14:10:26.124Z,99.90
2023-05-24T14:13:11.270Z,99.90
2023-05-24T14:15:43.132Z,99.90
2023-05-24T14:18:12.016Z,99.90
2023-05-24T14:20:40.951Z,99.90
2023-05-24T14:23:09.849Z,99.90
2023-05-24T14:25:38.050Z,99.90
2023-05-24T14:28:08.431Z,99.90
2023-05-24T14:30:37.833Z,99.90
2023-05-24T14:33:08.272Z,99.90
2023-05-24T14:35:39.569Z,99.90
2023-05-24T14:38:09.255Z,99.90
2023-05-24T14:40:39.990Z,99.90
2023-05-24T14:43:10.697Z,99.90
2023-05-24T14:45:41.408Z,99.90
2023-05-24T14:48:11.462Z,99.90
2023-05-24T14:50:41.341Z,99.90
2023-05-24T14:53:12.177Z,99.90
2023-05-24T14:55:43.146Z,99.90
2023-05-24T14:58:16.360Z,99.90
2023-05-24T15:00:45.123Z,99.90
2023-05-24T15:03:14.572Z,99.90
2023-05-24T15:05:43.015Z,99.90
2023-05-24T15:08:11.835Z,99.90
2023-05-24T15:10:40.198Z,99.90
2023-05-24T15:13:08.272Z,99.90
2023-05-24T15:15:37.538Z,99.90
2023-05-24T15:18:06.059Z,99.90
2023-05-24T15:20:35.886Z,99.90
2023-05-24T15:23:04.537Z,99.90
2023-05-24T15:25:32.496Z,99.90
2023-05-24T15:28:00.532Z,99.90
2023-05-24T15:30:28.805Z,99.90
2023-05-24T15:32:58.114Z,99.90
2023-05-24T15:35:26.732Z,99.90
2023-05-24T15:37:54.669Z,99.90
2023-05-24T15:40:24.485Z,99.90
2023-05-24T15:42:53.686Z,99.90
2023-05-24T15:45:21.966Z,99.90
2023-05-24T15:47:50.169Z,99.90
2023-05-24T15:50:28.528Z,99.90
2023-05-24T15:53:04.398Z,99.90
2023-05-24T15:55:33.631Z,99.90
2023-05-24T15:58:01.649Z,99.90
2023-05-24T16:00:29.614Z,99.90
2023-05-24T16:02:57.992Z,99.90
2023-05-24T16:05:28.303Z,99.90
2023-05-24T16:07:56.294Z,99.90
2023-05-24T16:10:24.430Z,99.90
2023-05-24T16:12:52.374Z,99.90
2023-05-24T16:15:20.374Z,99.90
2023-05-24T16:17:48.766Z,99.90
2023-05-24T16:20:17.120Z,99.90
2023-05-24T16:22:49.885Z,99.90
2023-05-24T16:25:17.877Z,99.90
2023-05-24T16:27:45.927Z,99.90
2023-05-24T16:30:14.548Z,99.90
2023-05-24T16:32:44.822Z,99.90
2023-05-24T16:35:12.801Z,99.90
2023-05-24T16:37:40.785Z,99.90
2023-05-24T16:40:11.852Z,99.90
2023-05-24T16:42:39.808Z,99.90
2023-05-24T16:45:08.818Z,99.90
2023-05-24T16:47:37.289Z,99.90
2023-05-24T16:50:06.569Z,99.90
2023-05-24T16:52:34.578Z,99.90
2023-05-24T16:55:02.531Z,99.90
2023-05-24T16:57:31.825Z,99.90
2023-05-24T16:59:59.773Z,99.90
2023-05-24T17:02:27.825Z,99.90
2023-05-24T17:04:55.930Z,99.90
2023-05-24T17:07:24.012Z,99.90
2023-05-24T17:09:52.656Z,99.90
2023-05-24T17:12:22.070Z,99.90
2023-05-24T17:14:51.389Z,99.90
2023-05-24T17:17:19.324Z,99.90
2023-05-24T17:19:47.614Z,99.90
2023-05-24T17:22:15.970Z,99.90
2023-05-24T17:24:43.886Z,99.90
2023-05-24T17:27:11.833Z,99.90
2023-05-24T17:29:40.386Z,99.90
2023-05-24T17:32:09.826Z,99.90
2023-05-24T17:34:37.871Z,99.90
2023-05-24T17:37:06.197Z,99.90
2023-05-24T17:39:34.134Z,99.90
2023-05-24T17:42:02.927Z,99.90
2023-05-24T17:44:31.322Z,99.90
2023-05-24T17:47:01.608Z,99.90
2023-05-24T17:49:32.242Z,99.90
2023-05-24T17:52:00.934Z,99.90
2023-05-24T17:54:29.749Z,99.90
2023-05-24T17:56:57.696Z,99.90
2023-05-24T17:59:25.653Z,99.90
2023-05-24T18:01:53.665Z,99.90
2023-05-24T18:04:21.667Z,99.90
2023-05-24T18:06:50.938Z,99.90
2023-05-24T18:09:19.080Z,99.90
2023-05-24T18:11:47.016Z,99.90
2023-05-24T18:14:15.058Z,99.90
2023-05-24T18:16:43.474Z,99.90
2023-05-24T18:19:11.411Z,99.90
2023-05-24T18:21:39.699Z,99.90
2023-05-24T18:24:09.061Z,99.90
2023-05-24T18:26:37.000Z,99.90
2023-05-24T18:29:04.914Z,99.90
2023-05-24T18:31:32.834Z,99.90
2023-05-24T18:34:01.835Z,99.90
2023-05-24T18:36:30.046Z,99.90
2023-05-24T18:39:00.779Z,99.90
2023-05-24T18:41:30.157Z,99.90
2023-05-24T18:43:58.080Z,99.90
2023-05-24T18:46:26.466Z,99.90
2023-05-24T18:48:54.868Z,99.90
2023-05-24T18:51:22.836Z,99.90
2023-05-24T18:53:51.694Z,99.90
2023-05-24T18:56:19.626Z,99.90
2023-05-24T18:58:51.024Z,99.90
2023-05-24T19:01:19.435Z,99.90
2023-05-24T19:03:48.028Z,99.90
2023-05-24T19:06:16.460Z,99.90
2023-05-24T19:08:44.391Z,99.90
2023-05-24T19:11:12.327Z,99.90
2023-05-24T19:13:40.781Z,99.90
2023-05-24T19:16:17.288Z,99.90
2023-05-24T19:18:45.610Z,99.90
2023-05-24T19:21:13.897Z,99.90
2023-05-24T19:23:42.309Z,99.90
2023-05-24T19:26:11.172Z,99.90
2023-05-24T19:28:41.624Z,99.90
2023-05-24T19:31:10.863Z,99.90
2023-05-24T19:33:48.539Z,99.90
2023-05-24T19:36:26.664Z,99.90
2023-05-24T19:38:54.902Z,99.90
2023-05-24T19:41:22.890Z,99.90
2023-05-24T19:43:50.900Z,99.90
2023-05-24T19:46:20.250Z,99.90
2023-05-24T19:48:48.224Z,99.90
2023-05-24T19:51:16.933Z,99.90
2023-05-24T19:53:45.334Z,99.90
2023-05-24T19:56:13.637Z,99.90
2023-05-24T19:58:42.008Z,99.90
2023-05-24T20:01:09.999Z,99.90
2023-05-24T20:03:39.657Z,99.90
2023-05-24T20:06:08.059Z,99.90
2023-05-24T20:08:36.007Z,99.90
2023-05-24T20:11:05.317Z,99.90
2023-05-24T20:13:33.254Z,99.90
2023-05-24T20:16:01.248Z,99.90
2023-05-24T20:18:29.244Z,99.90
2023-05-24T20:20:58.580Z,99.90
2023-05-24T20:23:27.447Z,99.90
2023-05-24T20:25:56.155Z,99.90
2023-05-24T20:28:30.727Z,99.90
2023-05-24T20:31:00.126Z,99.90
2023-05-24T20:33:28.092Z,99.90
2023-05-24T20:35:56.324Z,99.90
2023-05-24T20:38:25.563Z,99.90
2023-05-24T20:40:53.809Z,99.90
2023-05-24T20:43:21.871Z,99.90
2023-05-24T20:45:49.793Z,99.90
2023-05-24T20:48:17.826Z,99.90
2023-05-24T20:50:45.847Z,99.90
2023-05-24T20:53:13.755Z,99.90
2023-05-24T20:55:43.523Z,99.90
2023-05-24T20:58:11.717Z,99.90
2023-05-24T21:00:40.182Z,99.90
2023-05-24T21:03:08.791Z,99.90
2023-05-24T21:05:38.018Z,99.90
2023-05-24T21:08:06.106Z,99.90
2023-05-24T21:10:34.239Z,99.90
2023-05-24T21:13:03.749Z,99.90
2023-05-24T21:15:31.770Z,99.90
2023-05-24T21:18:00.081Z,99.90
2023-05-24T21:20:28.155Z,99.90
2023-05-24T21:22:56.150Z,99.90
2023-05-24T21:25:24.470Z,99.90
2023-05-24T21:27:52.383Z,99.90
2023-05-24T21:30:21.868Z,99.90
2023-05-24T21:32:50.177Z,99.90
2023-05-24T21:35:18.136Z,99.90
2023-05-24T21:37:46.448Z,99.90
2023-05-24T21:40:14.440Z,99.90
2023-05-24T21:42:42.360Z,99.90
2023-05-24T21:45:12.150Z,99.90
2023-05-24T21:47:41.496Z,99.90
2023-05-24T21:50:10.423Z,99.90
2023-05-24T21:52:39.311Z,99.90
2023-05-24T21:55:08.314Z,99.90
2023-05-24T21:57:36.282Z,99.90
2023-05-24T22:00:05.980Z,99.90
2023-05-24T22:02:34.977Z,99.90
2023-05-24T22:05:05.592Z,99.90
2023-05-24T22:07:33.533Z,99.90
2023-05-24T22:10:01.748Z,99.90
2023-05-24T22:12:29.665Z,99.90
2023-05-24T22:14:57.725Z,99.90
2023-05-24T22:17:26.671Z,99.90
2023-05-24T22:19:54.665Z,99.90
2023-05-24T22:22:24.004Z,99.90
2023-05-24T22:24:51.928Z,99.90
2023-05-24T22:27:20.813Z,99.90
2023-05-24T22:29:49.244Z,99.90
2023-05-24T22:32:17.303Z,99.90
2023-05-24T22:34:45.720Z,99.90
2023-05-24T22:37:16.552Z,99.90
2023-05-24T22:39:45.946Z,99.90
2023-05-24T22:42:13.932Z,99.90
2023-05-24T22:44:41.902Z,99.90
2023-05-24T22:47:13.875Z,99.90
2023-05-24T22:49:43.032Z,99.90
2023-05-24T22:52:11.773Z,99.90
2023-05-24T22:54:39.805Z,99.90
2023-05-24T22:57:09.069Z,99.90
2023-05-24T22:59:37.005Z,99.90
2023-05-24T23:02:05.464Z,99.90
2023-05-24T23:04:33.541Z,99.90
2023-05-24T23:07:01.607Z,99.90
2023-05-24T23:09:34.231Z,99.90
2023-05-24T23:12:02.561Z,99.90
2023-05-24T23:14:38.027Z,99.90
2023-05-24T23:17:06.626Z,99.90
2023-05-24T23:19:34.667Z,99.90
2023-05-24T23:22:03.503Z,99.90
2023-05-24T23:24:31.466Z,99.90
2023-05-24T23:26:59.704Z,99.90
2023-05-24T23:29:27.639Z,99.90
2023-05-24T23:31:57.059Z,99.90
2023-05-24T23:34:25.028Z,99.90
2023-05-24T23:36:52.998Z,99.90
2023-05-24T23:39:20.943Z,99.90
2023-05-24T23:41:49.166Z,99.90
2023-05-24T23:44:17.142Z,99.90
2023-05-24T23:46:45.125Z,99.90
2023-05-24T23:49:14.439Z,99.90
2023-05-24T23:51:42.441Z,99.90
2023-05-24T23:54:11.244Z,99.90
2023-05-24T23:56:39.964Z,99.90
2023-05-24T23:59:07.893Z,99.90
